Time;durP1;ratioP1;P1;durP2;ratioP2;P2;SDS_P1;SDS_P2;PMS_P1;PMS_P2;Temp;Humidity;BMP_temperature;BMP_pressure;BME280_temperature;BME280_humidity;BME280_pressure;Samples;Min_cycle;Max_cycle;Signal;HPM_P1;HPM_P2
2022/03/02 00:00:44;;;;;;;18.05;12.30;;;5.10;98.80;;;;;;2092976;28;20071;-67
2022/03/02 00:01:45;;;;;;;15.85;12.23;;;5.10;98.80;;;;;;2097485;28;20024;-67
2022/03/02 00:02:45;;;;;;;18.52;13.02;;;5.10;98.70;;;;;;2095375;28;20020;-68
2022/03/02 00:03:46;;;;;;;18.92;13.15;;;5.10;98.50;;;;;;2098342;28;20115;-67
2022/03/02 00:04:47;;;;;;;16.27;12.25;;;5.10;98.60;;;;;;2101143;28;20463;-67
2022/03/02 00:05:47;;;;;;;17.00;13.52;;;5.10;98.70;;;;;;2095107;28;20563;-67
2022/03/02 00:06:48;;;;;;;17.95;13.65;;;5.10;98.80;;;;;;2096953;28;20044;-67
2022/03/02 00:07:48;;;;;;;15.30;12.20;;;5.10;98.80;;;;;;2097510;28;20376;-68
2022/03/02 00:08:49;;;;;;;17.05;12.75;;;5.10;99.20;;;;;;2093176;28;20034;-67
2022/03/02 00:09:50;;;;;;;15.70;12.05;;;5.10;99.10;;;;;;2096953;28;20788;-67
2022/03/02 00:10:51;;;;;;;15.38;12.23;;;5.10;99.20;;;;;;2095532;28;20071;-68
2022/03/02 00:11:51;;;;;;;17.27;13.50;;;5.10;99.30;;;;;;2097595;28;20020;-68
2022/03/02 00:12:52;;;;;;;14.57;11.68;;;5.10;99.40;;;;;;2099861;28;20037;-68
2022/03/02 00:13:53;;;;;;;16.48;11.88;;;5.10;99.30;;;;;;2097572;28;20032;-67
2022/03/02 00:14:53;;;;;;;17.83;14.07;;;5.10;99.30;;;;;;2100524;28;20452;-67
2022/03/02 00:15:54;;;;;;;15.27;12.10;;;5.10;99.40;;;;;;2097550;28;20047;-67
2022/03/02 00:16:54;;;;;;;16.83;12.52;;;5.10;99.40;;;;;;2098397;28;20029;-70
2022/03/02 00:17:56;;;;;;;14.60;11.82;;;5.10;99.30;;;;;;2103581;28;20103;-67
2022/03/02 00:18:57;;;;;;;15.95;11.88;;;5.10;99.20;;;;;;2100128;28;20046;-67
2022/03/02 00:19:58;;;;;;;16.40;12.27;;;5.10;99.20;;;;;;2099054;28;20422;-67
2022/03/02 00:20:58;;;;;;;18.75;12.73;;;5.10;99.40;;;;;;2098265;28;20028;-67
2022/03/02 00:21:59;;;;;;;14.50;11.57;;;5.10;99.40;;;;;;2100242;28;20036;-67
2022/03/02 00:23:00;;;;;;;15.85;11.55;;;5.10;99.50;;;;;;2099885;28;20036;-67
2022/03/02 00:24:03;;;;;;;16.45;11.98;;;5.10;99.40;;;;;;2093207;28;20029;-67
2022/03/02 00:25:05;;;;;;;16.52;13.15;;;5.10;99.50;;;;;;2096551;28;20041;-67
2022/03/02 00:26:05;;;;;;;15.68;11.40;;;5.10;99.60;;;;;;2101511;28;20868;-67
2022/03/02 00:27:06;;;;;;;16.40;13.43;;;5.10;99.90;;;;;;2101765;28;20455;-67
2022/03/02 00:28:07;;;;;;;17.50;11.98;;;5.10;99.90;;;;;;2099948;28;20060;-67
2022/03/02 00:29:07;;;;;;;18.23;12.65;;;5.10;99.90;;;;;;2099850;28;20029;-67
2022/03/02 00:30:10;;;;;;;18.25;12.48;;;5.10;99.90;;;;;;2098268;28;20537;-67
2022/03/02 00:31:11;;;;;;;16.02;12.45;;;5.10;99.90;;;;;;2097274;28;20020;-67
2022/03/02 00:32:11;;;;;;;15.65;11.15;;;5.10;99.90;;;;;;2100200;28;20508;-67
2022/03/02 00:33:12;;;;;;;17.27;12.40;;;5.10;99.90;;;;;;2095918;28;20483;-67
2022/03/02 00:34:13;;;;;;;14.45;11.10;;;5.10;99.90;;;;;;2101642;28;20435;-67
2022/03/02 00:35:14;;;;;;;15.93;12.10;;;5.10;99.90;;;;;;2098312;28;20040;-67
2022/03/02 00:36:14;;;;;;;13.75;11.32;;;5.10;99.80;;;;;;2099615;28;20094;-67
2022/03/02 00:37:15;;;;;;;16.33;12.35;;;5.10;99.70;;;;;;2098453;28;20028;-68
2022/03/02 00:38:16;;;;;;;13.48;10.85;;;5.10;99.90;;;;;;2100147;28;20036;-67
2022/03/02 00:39:16;;;;;;;13.40;11.45;;;5.10;99.90;;;;;;2096423;28;20082;-68
2022/03/02 00:40:17;;;;;;;16.30;13.15;;;5.10;99.90;;;;;;2100730;28;20024;-67
2022/03/02 00:41:18;;;;;;;16.25;11.77;;;5.10;99.90;;;;;;2095728;28;20031;-68
2022/03/02 00:42:18;;;;;;;16.10;12.48;;;5.10;99.90;;;;;;2101656;28;20032;-67
2022/03/02 00:43:19;;;;;;;15.07;11.68;;;5.10;99.90;;;;;;2099757;28;20081;-67
2022/03/02 00:44:19;;;;;;;15.35;11.52;;;5.10;99.90;;;;;;2098678;28;20139;-67
2022/03/02 00:45:20;;;;;;;15.88;11.63;;;5.10;99.90;;;;;;2096040;28;20052;-68
2022/03/02 00:46:23;;;;;;;16.38;12.32;;;5.10;99.90;;;;;;2098695;28;20020;-68
2022/03/02 00:47:24;;;;;;;17.20;12.73;;;5.00;99.90;;;;;;2095085;28;20028;-67
2022/03/02 00:48:25;;;;;;;15.13;11.85;;;5.00;99.70;;;;;;2096876;28;20048;-68
2022/03/02 00:49:27;;;;;;;17.10;12.50;;;5.00;99.60;;;;;;2094218;28;20021;-67
2022/03/02 00:50:28;;;;;;;13.52;10.63;;;5.00;99.60;;;;;;2100648;28;20457;-67
2022/03/02 00:51:29;;;;;;;15.73;12.20;;;5.00;99.60;;;;;;2102793;28;20098;-67
2022/03/02 00:52:30;;;;;;;15.98;11.73;;;5.00;99.60;;;;;;2099055;28;20020;-67
2022/03/02 00:53:31;;;;;;;15.70;11.32;;;5.00;99.60;;;;;;2098573;28;20017;-67
2022/03/02 00:54:32;;;;;;;13.48;10.35;;;5.00;99.60;;;;;;2100113;28;20028;-67
2022/03/02 00:55:34;;;;;;;17.60;12.13;;;5.00;99.50;;;;;;2093131;28;20013;-67
2022/03/02 00:56:35;;;;;;;16.13;11.88;;;5.00;99.50;;;;;;2097822;28;20028;-67
2022/03/02 00:57:35;;;;;;;15.00;12.02;;;4.90;99.40;;;;;;2094350;28;20103;-67
2022/03/02 00:58:36;;;;;;;17.40;12.05;;;4.90;99.50;;;;;;2093648;28;20032;-67
2022/03/02 00:59:36;;;;;;;16.73;11.55;;;4.90;99.30;;;;;;2098033;28;20052;-67
2022/03/02 01:00:38;;;;;;;15.50;11.10;;;4.90;99.10;;;;;;2096379;28;20071;-67
2022/03/02 01:01:38;;;;;;;18.33;12.55;;;4.90;99.00;;;;;;2096374;28;20025;-67
2022/03/02 01:02:39;;;;;;;14.43;10.98;;;4.90;98.40;;;;;;2097543;28;20472;-67
2022/03/02 01:03:40;;;;;;;14.40;10.65;;;4.90;98.20;;;;;;2094198;28;20025;-67
2022/03/02 01:04:41;;;;;;;14.77;11.77;;;4.90;98.10;;;;;;2097478;28;20112;-67
2022/03/02 01:05:41;;;;;;;13.27;10.63;;;4.80;98.20;;;;;;2094308;28;20017;-67
2022/03/02 01:06:42;;;;;;;13.90;11.45;;;4.80;98.30;;;;;;2099823;28;20021;-67
2022/03/02 01:07:43;;;;;;;15.90;11.55;;;4.80;98.30;;;;;;2100767;28;20056;-67
2022/03/02 01:08:44;;;;;;;14.40;10.73;;;4.80;98.40;;;;;;2099128;28;20028;-68
2022/03/02 01:09:44;;;;;;;15.75;11.90;;;4.80;98.50;;;;;;2101783;28;20034;-68
2022/03/02 01:10:45;;;;;;;13.55;10.73;;;4.80;98.50;;;;;;2095706;28;20020;-68
2022/03/02 01:11:46;;;;;;;14.13;11.48;;;4.80;98.60;;;;;;2094838;28;20016;-68
2022/03/02 01:12:46;;;;;;;15.45;11.68;;;4.80;98.80;;;;;;2099841;28;20028;-69
2022/03/02 01:13:47;;;;;;;15.63;12.07;;;4.70;98.80;;;;;;2096092;28;20012;-68
2022/03/02 01:14:47;;;;;;;16.85;12.45;;;4.70;98.90;;;;;;2098431;28;20020;-67
2022/03/02 01:15:48;;;;;;;14.18;11.48;;;4.70;98.90;;;;;;2098844;28;20539;-67
2022/03/02 01:16:49;;;;;;;13.18;10.60;;;4.70;98.90;;;;;;2096649;28;20107;-67
2022/03/02 01:17:50;;;;;;;15.48;12.02;;;4.70;98.90;;;;;;2100467;28;20094;-67
2022/03/02 01:18:50;;;;;;;14.23;10.98;;;4.70;98.80;;;;;;2095028;28;20669;-67
2022/03/02 01:19:52;;;;;;;16.38;11.98;;;4.70;98.80;;;;;;2096620;28;20965;-67
2022/03/02 01:20:53;;;;;;;14.60;11.13;;;4.70;98.80;;;;;;2097018;28;20037;-68
2022/03/02 01:21:53;;;;;;;19.05;12.25;;;4.70;98.80;;;;;;2100375;28;20071;-67
2022/03/02 01:22:54;;;;;;;13.50;10.93;;;4.70;98.90;;;;;;2098673;28;20024;-67
2022/03/02 01:23:56;;;;;;;14.73;10.65;;;4.60;99.10;;;;;;2096731;28;20020;-67
2022/03/02 01:24:57;;;;;;;14.25;10.52;;;4.60;99.10;;;;;;2096572;28;20111;-67
2022/03/02 01:25:58;;;;;;;14.38;11.32;;;4.60;99.20;;;;;;2098648;28;20031;-68
2022/03/02 01:27:01;;;;;;;16.08;11.18;;;4.60;99.10;;;;;;2097656;28;20032;-67
2022/03/02 01:28:01;;;;;;;13.75;11.18;;;4.60;99.10;;;;;;2096346;28;20024;-67
2022/03/02 01:29:04;;;;;;;13.85;10.73;;;4.60;99.10;;;;;;2093994;28;20031;-67
2022/03/02 01:30:06;;;;;;;13.55;10.80;;;4.60;99.20;;;;;;2098958;28;20418;-67
2022/03/02 01:31:07;;;;;;;16.13;12.18;;;4.60;99.10;;;;;;2100952;28;20140;-67
2022/03/02 01:32:11;;;;;;;14.82;11.52;;;4.50;99.10;;;;;;2097829;28;20401;-67
2022/03/02 01:33:11;;;;;;;15.38;11.65;;;4.50;99.20;;;;;;2096381;28;20021;-67
2022/03/02 01:34:12;;;;;;;13.77;10.68;;;4.50;99.10;;;;;;2097930;28;20460;-67
2022/03/02 01:35:13;;;;;;;13.88;11.23;;;4.50;99.10;;;;;;2097372;28;20024;-67
2022/03/02 01:36:13;;;;;;;15.45;10.93;;;4.50;99.20;;;;;;2094988;28;20048;-67
2022/03/02 01:37:14;;;;;;;14.63;12.02;;;4.50;99.10;;;;;;2098931;28;20060;-67
2022/03/02 01:38:15;;;;;;;15.77;11.07;;;4.40;99.10;;;;;;2101790;28;20097;-67
2022/03/02 01:39:15;;;;;;;14.73;11.63;;;4.40;99.10;;;;;;2099283;28;20684;-67
2022/03/02 01:40:16;;;;;;;14.23;10.75;;;4.40;99.20;;;;;;2097856;28;20028;-67
2022/03/02 01:41:21;;;;;;;14.13;11.90;;;4.40;99.30;;;;;;2096113;28;20506;-67
2022/03/02 01:42:21;;;;;;;15.63;11.65;;;4.40;99.40;;;;;;2095230;28;20029;-67
2022/03/02 01:43:22;;;;;;;15.25;11.57;;;4.30;99.30;;;;;;2097293;28;20037;-67
2022/03/02 01:44:22;;;;;;;14.85;10.88;;;4.30;99.20;;;;;;2092884;28;20437;-68
2022/03/02 01:45:23;;;;;;;14.27;11.20;;;4.30;99.20;;;;;;2098866;28;20078;-67
2022/03/02 01:46:24;;;;;;;16.58;11.32;;;4.30;99.30;;;;;;2100221;28;20472;-68
2022/03/02 01:47:28;;;;;;;16.48;11.85;;;4.30;99.30;;;;;;2098201;28;20021;-67
2022/03/02 01:48:29;;;;;;;14.75;11.45;;;4.30;99.70;;;;;;2101513;28;20018;-67
2022/03/02 01:49:30;;;;;;;14.80;11.30;;;4.30;99.40;;;;;;2095457;28;20036;-67
2022/03/02 01:50:31;;;;;;;16.80;12.77;;;4.20;99.40;;;;;;2095166;28;20021;-67
2022/03/02 01:51:32;;;;;;;15.00;11.77;;;4.20;99.50;;;;;;2097161;28;20029;-67
2022/03/02 01:52:33;;;;;;;14.85;11.60;;;4.20;99.40;;;;;;2094131;28;20051;-68
2022/03/02 01:53:34;;;;;;;19.33;12.65;;;4.20;99.40;;;;;;2099304;28;20079;-67
2022/03/02 01:54:35;;;;;;;17.85;12.43;;;4.20;99.40;;;;;;2100629;28;20029;-67
2022/03/02 01:55:35;;;;;;;13.80;11.95;;;4.20;99.50;;;;;;2097227;28;20021;-67
2022/03/02 01:56:36;;;;;;;16.98;12.48;;;4.20;99.60;;;;;;2100940;28;20051;-69
2022/03/02 01:57:37;;;;;;;16.88;12.75;;;4.10;99.70;;;;;;2095101;28;20116;-69
2022/03/02 01:58:38;;;;;;;18.67;12.02;;;4.10;99.70;;;;;;2091430;28;20113;-67
2022/03/02 01:59:39;;;;;;;15.60;12.15;;;4.10;99.80;;;;;;2097089;28;20020;-67
2022/03/02 02:00:40;;;;;;;17.42;12.93;;;4.10;99.80;;;;;;2095184;28;20358;-69
2022/03/02 02:01:41;;;;;;;13.35;10.65;;;4.10;99.90;;;;;;2099462;28;20029;-68
2022/03/02 02:02:42;;;;;;;17.98;13.25;;;4.10;99.80;;;;;;2098255;28;20036;-69
2022/03/02 02:03:43;;;;;;;14.85;11.90;;;4.00;99.70;;;;;;2088674;28;20060;-67
2022/03/02 02:04:43;;;;;;;19.85;12.40;;;4.00;99.80;;;;;;2094336;28;20017;-69
2022/03/02 02:05:44;;;;;;;15.27;12.57;;;4.00;99.80;;;;;;2097385;28;20070;-69
2022/03/02 02:06:44;;;;;;;16.42;12.55;;;4.00;99.80;;;;;;2092097;28;20037;-69
2022/03/02 02:07:46;;;;;;;17.55;12.32;;;4.00;99.80;;;;;;2098483;28;20034;-67
2022/03/02 02:08:47;;;;;;;18.60;13.32;;;4.00;99.80;;;;;;2098257;28;20050;-67
2022/03/02 02:09:47;;;;;;;17.73;13.38;;;3.90;99.80;;;;;;2096866;28;20023;-69
2022/03/02 02:10:48;;;;;;;18.95;12.07;;;4.00;99.90;;;;;;2095763;28;20024;-69
2022/03/02 02:11:48;;;;;;;16.85;12.40;;;3.90;99.90;;;;;;2098761;28;20061;-69
2022/03/02 02:12:49;;;;;;;16.75;12.70;;;3.90;99.90;;;;;;2099343;28;20118;-69
2022/03/02 02:13:50;;;;;;;18.10;12.82;;;3.90;99.90;;;;;;2096535;28;20062;-69
2022/03/02 02:14:50;;;;;;;16.67;12.48;;;3.90;99.80;;;;;;2098033;28;20090;-70
2022/03/02 02:15:53;;;;;;;16.25;12.30;;;3.90;99.90;;;;;;2097844;28;20070;-69
2022/03/02 02:16:53;;;;;;;17.13;12.95;;;3.90;99.90;;;;;;2096365;28;20032;-69
2022/03/02 02:17:55;;;;;;;17.23;12.52;;;3.90;99.90;;;;;;2098424;28;20039;-69
2022/03/02 02:18:55;;;;;;;16.05;12.50;;;3.90;99.90;;;;;;2100118;28;20028;-69
2022/03/02 02:19:56;;;;;;;17.23;12.20;;;3.90;99.90;;;;;;2098417;28;20486;-69
2022/03/02 02:21:08;;;;;;;19.02;12.50;;;3.80;99.90;;;;;;2097514;28;20507;-69
2022/03/02 02:22:08;;;;;;;16.60;12.65;;;3.80;99.90;;;;;;2099174;28;20040;-69
2022/03/02 02:23:09;;;;;;;15.32;12.38;;;3.80;99.90;;;;;;2095978;28;20025;-69
2022/03/02 02:24:09;;;;;;;17.73;11.70;;;3.80;99.90;;;;;;2094802;28;20146;-69
2022/03/02 02:25:11;;;;;;;20.02;13.30;;;3.80;99.90;;;;;;2098391;28;20427;-69
2022/03/02 02:26:11;;;;;;;18.20;12.35;;;3.80;99.90;;;;;;2100279;28;20024;-69
2022/03/02 02:27:14;;;;;;;16.80;12.95;;;3.80;99.90;;;;;;2093706;28;20028;-69
2022/03/02 02:28:19;;;;;;;17.45;12.93;;;3.80;99.90;;;;;;2097600;28;20967;-69
2022/03/02 02:29:23;;;;;;;16.33;12.73;;;3.80;99.90;;;;;;2094788;28;20032;-69
2022/03/02 02:30:24;;;;;;;16.50;12.05;;;3.70;99.90;;;;;;2097827;28;20028;-69
2022/03/02 02:31:25;;;;;;;16.55;11.77;;;3.70;99.90;;;;;;2096757;28;20020;-69
2022/03/02 02:32:25;;;;;;;17.73;11.95;;;3.70;99.90;;;;;;2096625;28;20484;-69
2022/03/02 02:33:28;;;;;;;15.00;11.85;;;3.70;99.90;;;;;;2100529;28;20107;-69
2022/03/02 02:34:28;;;;;;;16.98;12.40;;;3.70;99.90;;;;;;2094902;28;20026;-69
2022/03/02 02:35:29;;;;;;;17.42;12.82;;;3.70;99.90;;;;;;2101274;28;20035;-69
2022/03/02 02:36:29;;;;;;;16.60;12.10;;;3.70;99.90;;;;;;2095238;28;20048;-68
2022/03/02 02:37:33;;;;;;;17.70;12.85;;;3.70;99.90;;;;;;2097855;28;20056;-69
2022/03/02 02:38:33;;;;;;;17.95;12.85;;;3.60;99.90;;;;;;2098916;28;20028;-69
2022/03/02 02:39:36;;;;;;;16.50;12.02;;;3.70;99.90;;;;;;2093070;28;20021;-69
2022/03/02 02:40:37;;;;;;;16.00;12.23;;;3.60;99.90;;;;;;2098520;28;20493;-69
2022/03/02 02:41:37;;;;;;;18.45;12.85;;;3.60;99.90;;;;;;2099887;28;20028;-69
2022/03/02 02:42:39;;;;;;;18.05;12.20;;;3.60;99.90;;;;;;2097989;28;20036;-69
2022/03/02 02:43:42;;;;;;;17.58;12.98;;;3.60;99.90;;;;;;2100099;28;20023;-69
2022/03/02 02:44:43;;;;;;;16.50;11.93;;;3.60;99.90;;;;;;2095134;28;20366;-69
2022/03/02 02:45:44;;;;;;;17.88;12.48;;;3.60;99.90;;;;;;2099547;28;20013;-69
2022/03/02 02:46:45;;;;;;;16.35;12.43;;;3.60;99.90;;;;;;2094473;28;20036;-69
2022/03/02 02:47:47;;;;;;;18.40;13.63;;;3.60;99.90;;;;;;2092002;28;20099;-69
2022/03/02 02:48:48;;;;;;;15.75;12.73;;;3.60;99.90;;;;;;2101431;28;20546;-69
2022/03/02 02:49:48;;;;;;;16.60;12.98;;;3.60;99.90;;;;;;2095898;28;20452;-69
2022/03/02 02:50:49;;;;;;;18.63;13.70;;;3.60;99.90;;;;;;2098309;28;20110;-69
2022/03/02 02:51:50;;;;;;;18.05;12.63;;;3.60;99.90;;;;;;2098851;28;20054;-69
2022/03/02 02:52:52;;;;;;;16.52;12.50;;;3.50;99.90;;;;;;2096227;28;20012;-69
2022/03/02 02:53:52;;;;;;;15.70;12.52;;;3.50;99.90;;;;;;2094495;28;20663;-69
2022/03/02 02:54:53;;;;;;;17.30;12.68;;;3.60;99.90;;;;;;2096542;28;20024;-69
2022/03/02 02:55:54;;;;;;;16.33;13.02;;;3.50;99.90;;;;;;2095709;28;20077;-69
2022/03/02 02:56:55;;;;;;;16.98;12.07;;;3.50;99.90;;;;;;2103039;28;20476;-69
2022/03/02 02:57:56;;;;;;;19.55;13.52;;;3.50;99.90;;;;;;2095803;28;20500;-69
2022/03/02 02:58:57;;;;;;;16.25;13.00;;;3.50;99.90;;;;;;2088657;28;20025;-69
2022/03/02 02:59:57;;;;;;;17.83;13.10;;;3.50;99.90;;;;;;2094615;28;20028;-69
2022/03/02 03:00:58;;;;;;;18.10;11.70;;;3.50;99.90;;;;;;2099225;28;20642;-69
2022/03/02 03:01:59;;;;;;;15.35;12.35;;;3.50;99.90;;;;;;2097649;28;20476;-69
2022/03/02 03:03:00;;;;;;;16.52;13.35;;;3.50;99.90;;;;;;2098872;28;20021;-69
2022/03/02 03:04:01;;;;;;;20.60;13.45;;;3.50;99.90;;;;;;2097694;28;20135;-69
2022/03/02 03:05:02;;;;;;;17.38;13.57;;;3.50;99.90;;;;;;2101780;28;20546;-69
2022/03/02 03:06:04;;;;;;;18.10;13.23;;;3.50;99.90;;;;;;2098523;28;20020;-70
2022/03/02 03:07:04;;;;;;;15.07;12.57;;;3.50;99.90;;;;;;2098346;28;20024;-69
2022/03/02 03:08:08;;;;;;;18.40;13.55;;;3.50;99.90;;;;;;2099245;28;20112;-69
2022/03/02 03:09:08;;;;;;;17.65;13.50;;;3.50;99.90;;;;;;2097637;28;20437;-69
2022/03/02 03:10:10;;;;;;;19.23;13.20;;;3.50;99.90;;;;;;2097044;28;20047;-69
2022/03/02 03:11:11;;;;;;;16.17;12.43;;;3.50;99.90;;;;;;2099364;28;20047;-69
2022/03/02 03:12:11;;;;;;;19.45;14.30;;;3.50;99.90;;;;;;2101460;28;20021;-69
2022/03/02 03:13:12;;;;;;;17.08;13.75;;;3.50;99.90;;;;;;2101849;28;20021;-69
2022/03/02 03:14:14;;;;;;;16.88;13.85;;;3.50;99.90;;;;;;2102291;28;20035;-69
2022/03/02 03:15:17;;;;;;;17.55;12.75;;;3.50;99.90;;;;;;2101496;28;20055;-69
2022/03/02 03:16:17;;;;;;;19.42;13.30;;;3.50;99.90;;;;;;2092736;28;20029;-69
2022/03/02 03:17:18;;;;;;;18.52;13.05;;;3.50;99.90;;;;;;2098011;28;20555;-68
2022/03/02 03:18:19;;;;;;;16.55;13.15;;;3.50;99.90;;;;;;2095123;28;20055;-69
2022/03/02 03:19:19;;;;;;;16.17;13.38;;;3.50;99.90;;;;;;2099167;28;20031;-69
2022/03/02 03:20:25;;;;;;;18.00;13.50;;;3.40;99.90;;;;;;2100116;28;20443;-69
2022/03/02 03:21:25;;;;;;;16.73;12.55;;;3.40;99.90;;;;;;2100128;28;20040;-69
2022/03/02 03:22:26;;;;;;;15.45;12.50;;;3.40;99.90;;;;;;2102981;28;20110;-69
2022/03/02 03:23:27;;;;;;;16.52;12.93;;;3.50;99.90;;;;;;2097573;28;20028;-69
2022/03/02 03:24:27;;;;;;;16.45;13.40;;;3.40;99.90;;;;;;2092324;28;20052;-69
2022/03/02 03:25:28;;;;;;;19.35;15.40;;;3.40;99.90;;;;;;2100358;28;20036;-69
2022/03/02 03:26:29;;;;;;;19.25;13.38;;;3.40;99.90;;;;;;2093990;28;20025;-69
2022/03/02 03:27:29;;;;;;;21.00;12.25;;;3.40;99.90;;;;;;2099777;28;20032;-69
2022/03/02 03:28:30;;;;;;;14.70;12.07;;;3.40;99.90;;;;;;2101243;28;20473;-69
2022/03/02 03:29:30;;;;;;;16.83;12.68;;;3.40;99.90;;;;;;2098767;28;20017;-69
2022/03/02 03:30:33;;;;;;;16.58;12.57;;;3.40;99.90;;;;;;2100460;28;20410;-69
2022/03/02 03:31:33;;;;;;;18.50;12.48;;;3.40;99.90;;;;;;2097465;28;20064;-69
2022/03/02 03:32:35;;;;;;;17.60;12.48;;;3.40;99.90;;;;;;2096129;28;20021;-69
2022/03/02 03:33:35;;;;;;;17.98;11.75;;;3.40;99.90;;;;;;2099533;28;20561;-69
2022/03/02 03:34:36;;;;;;;18.67;13.95;;;3.40;99.90;;;;;;2099111;28;20457;-69
2022/03/02 03:35:36;;;;;;;16.10;12.88;;;3.40;99.90;;;;;;2096196;28;20385;-69
2022/03/02 03:36:38;;;;;;;17.40;13.55;;;3.40;99.90;;;;;;2097021;28;20029;-69
2022/03/02 03:37:39;;;;;;;15.13;12.82;;;3.50;99.90;;;;;;2097060;28;20035;-69
2022/03/02 03:38:40;;;;;;;16.33;13.05;;;3.40;99.90;;;;;;2100781;28;20016;-69
2022/03/02 03:39:42;;;;;;;17.13;12.77;;;3.40;99.90;;;;;;2094622;28;20008;-69
2022/03/02 03:40:43;;;;;;;18.40;14.40;;;3.40;99.90;;;;;;2097359;28;20551;-69
2022/03/02 03:41:43;;;;;;;18.55;13.35;;;3.40;99.90;;;;;;2096688;28;20384;-67
2022/03/02 03:42:45;;;;;;;17.50;12.73;;;3.40;99.90;;;;;;2093904;28;20020;-69
2022/03/02 03:43:45;;;;;;;14.77;12.10;;;3.40;99.90;;;;;;2099497;28;20533;-69
2022/03/02 03:44:46;;;;;;;16.90;12.35;;;3.40;99.90;;;;;;2100413;28;20472;-69
2022/03/02 03:45:48;;;;;;;18.05;12.82;;;3.40;99.90;;;;;;2099102;28;20030;-69
2022/03/02 03:46:48;;;;;;;16.50;12.63;;;3.40;99.90;;;;;;2099966;28;20012;-69
2022/03/02 03:47:49;;;;;;;16.27;13.20;;;3.40;99.90;;;;;;2096731;28;20468;-69
2022/03/02 03:48:50;;;;;;;16.55;12.45;;;3.40;99.90;;;;;;2100834;28;20107;-69
2022/03/02 03:49:51;;;;;;;16.63;12.55;;;3.40;99.90;;;;;;2096081;28;20028;-69
2022/03/02 03:50:51;;;;;;;18.23;12.77;;;3.40;99.90;;;;;;2095332;28;20055;-69
2022/03/02 03:51:52;;;;;;;17.27;12.75;;;3.40;99.90;;;;;;2104103;28;20020;-69
2022/03/02 03:52:53;;;;;;;17.67;13.15;;;3.40;99.90;;;;;;2101059;28;20059;-69
2022/03/02 03:53:53;;;;;;;14.68;11.93;;;3.40;99.90;;;;;;2099960;28;20032;-69
2022/03/02 03:54:54;;;;;;;15.27;12.10;;;3.40;99.90;;;;;;2101389;28;20020;-69
2022/03/02 03:55:54;;;;;;;18.08;12.55;;;3.40;99.90;;;;;;2097672;28;20038;-69
2022/03/02 03:56:55;;;;;;;15.68;12.65;;;3.40;99.90;;;;;;2101334;28;20032;-69
2022/03/02 03:57:56;;;;;;;15.93;12.10;;;3.40;99.90;;;;;;2094258;28;20107;-69
2022/03/02 03:58:58;;;;;;;13.80;11.30;;;3.40;99.90;;;;;;2094710;28;20031;-69
2022/03/02 03:59:59;;;;;;;16.13;12.50;;;3.30;99.90;;;;;;2102875;28;20020;-69
2022/03/02 04:00:59;;;;;;;14.80;12.13;;;3.30;99.90;;;;;;2100735;28;20027;-69
2022/03/02 04:02:00;;;;;;;16.42;12.13;;;3.30;99.90;;;;;;2098834;28;20072;-69
2022/03/02 04:03:01;;;;;;;18.27;12.45;;;3.30;99.90;;;;;;2098428;28;20067;-70
2022/03/02 04:04:02;;;;;;;14.55;12.45;;;3.40;99.90;;;;;;2100092;28;20480;-69
2022/03/02 04:05:03;;;;;;;16.02;11.55;;;3.30;99.90;;;;;;2097865;28;20028;-69
2022/03/02 04:06:04;;;;;;;17.27;12.20;;;3.30;99.90;;;;;;2099742;28;20076;-69
2022/03/02 04:07:05;;;;;;;18.42;12.95;;;3.30;99.90;;;;;;2096398;28;20103;-69
2022/03/02 04:08:06;;;;;;;14.15;11.38;;;3.30;99.90;;;;;;2100812;28;20031;-69
2022/03/02 04:09:07;;;;;;;18.10;12.00;;;3.30;99.90;;;;;;2103465;28;20041;-69
2022/03/02 04:10:09;;;;;;;16.95;12.45;;;3.30;99.90;;;;;;2100681;28;20035;-69
2022/03/02 04:11:09;;;;;;;15.20;11.98;;;3.30;99.90;;;;;;2097002;28;20104;-69
2022/03/02 04:12:10;;;;;;;16.10;12.48;;;3.30;99.90;;;;;;2101184;28;20028;-70
2022/03/02 04:13:12;;;;;;;18.55;12.25;;;3.30;99.90;;;;;;2099052;28;20025;-70
2022/03/02 04:14:12;;;;;;;15.35;11.90;;;3.20;99.90;;;;;;2099594;28;20040;-69
2022/03/02 04:15:13;;;;;;;16.95;11.68;;;3.20;99.90;;;;;;2097359;28;20024;-69
2022/03/02 04:16:14;;;;;;;16.60;12.20;;;3.30;99.90;;;;;;2100897;28;20025;-69
2022/03/02 04:17:15;;;;;;;13.18;11.10;;;3.30;99.90;;;;;;2101612;28;20115;-69
2022/03/02 04:18:16;;;;;;;17.48;11.93;;;3.20;99.90;;;;;;2098918;28;20484;-69
2022/03/02 04:19:16;;;;;;;16.33;12.63;;;3.20;99.90;;;;;;2096426;28;20588;-69
2022/03/02 04:20:17;;;;;;;15.07;11.63;;;3.20;99.90;;;;;;2097646;28;20039;-69
2022/03/02 04:21:17;;;;;;;16.55;12.30;;;3.20;99.90;;;;;;2095602;28;20052;-69
2022/03/02 04:22:18;;;;;;;15.13;11.55;;;3.20;99.90;;;;;;2095331;28;20572;-69
2022/03/02 04:23:21;;;;;;;16.40;11.70;;;3.20;99.90;;;;;;2096768;28;20036;-69
2022/03/02 04:24:22;;;;;;;17.48;11.75;;;3.20;99.90;;;;;;2095302;28;20582;-69
2022/03/02 04:25:22;;;;;;;15.07;11.30;;;3.10;99.90;;;;;;2097859;28;20062;-69
2022/03/02 04:26:23;;;;;;;14.85;11.35;;;3.10;99.90;;;;;;2097856;28;20033;-69
2022/03/02 04:27:24;;;;;;;17.42;12.82;;;3.10;99.90;;;;;;2101402;28;20021;-69
2022/03/02 04:28:24;;;;;;;16.90;12.73;;;3.20;99.90;;;;;;2097339;28;20063;-68
2022/03/02 04:29:25;;;;;;;16.33;12.07;;;3.10;99.90;;;;;;2094414;28;20106;-68
2022/03/02 04:30:27;;;;;;;16.10;12.07;;;3.10;99.90;;;;;;2100218;28;20361;-68
2022/03/02 04:31:27;;;;;;;14.23;11.18;;;3.10;99.90;;;;;;2099700;28;20480;-68
2022/03/02 04:32:28;;;;;;;15.63;11.57;;;3.10;99.90;;;;;;2099557;28;20372;-68
2022/03/02 04:33:29;;;;;;;17.45;12.80;;;3.10;99.90;;;;;;2099830;28;20384;-68
2022/03/02 04:34:29;;;;;;;15.18;10.80;;;3.10;99.90;;;;;;2097781;28;20044;-69
2022/03/02 04:35:31;;;;;;;13.25;11.32;;;3.10;99.90;;;;;;2101181;28;20025;-69
2022/03/02 04:36:31;;;;;;;16.67;12.07;;;3.00;99.90;;;;;;2095735;28;20017;-72
2022/03/02 04:37:32;;;;;;;17.38;12.70;;;3.00;99.90;;;;;;2097378;28;20081;-69
2022/03/02 04:38:33;;;;;;;18.02;13.35;;;3.00;99.90;;;;;;2100478;28;20052;-68
2022/03/02 04:39:35;;;;;;;14.80;12.27;;;3.00;99.90;;;;;;2100899;28;20531;-68
2022/03/02 04:40:36;;;;;;;15.93;11.52;;;3.00;99.90;;;;;;2099471;28;20043;-69
2022/03/02 04:41:36;;;;;;;18.33;12.88;;;3.00;99.90;;;;;;2099691;28;20033;-68
2022/03/02 04:42:37;;;;;;;14.57;10.95;;;3.00;99.90;;;;;;2096597;28;20035;-68
2022/03/02 04:43:38;;;;;;;17.90;12.38;;;2.90;99.90;;;;;;2097939;28;20107;-69
2022/03/02 04:44:39;;;;;;;16.08;12.20;;;2.90;99.90;;;;;;2095419;28;20024;-69
2022/03/02 04:45:39;;;;;;;15.25;11.07;;;2.90;99.90;;;;;;2099280;28;20025;-69
2022/03/02 04:46:40;;;;;;;15.77;12.25;;;2.90;99.90;;;;;;2099437;28;20024;-68
2022/03/02 04:47:41;;;;;;;15.45;11.15;;;2.80;99.90;;;;;;2100053;28;20104;-68
2022/03/02 04:48:42;;;;;;;16.52;11.75;;;2.80;99.90;;;;;;2099207;28;20100;-68
2022/03/02 04:49:42;;;;;;;14.77;11.10;;;2.80;99.90;;;;;;2097738;28;20025;-68
2022/03/02 04:50:43;;;;;;;16.02;11.77;;;2.90;99.90;;;;;;2096777;28;20108;-68
2022/03/02 04:51:45;;;;;;;18.48;12.80;;;2.80;99.90;;;;;;2099068;28;20029;-69
2022/03/02 04:52:47;;;;;;;15.60;11.32;;;2.80;99.90;;;;;;2094911;28;20041;-68
2022/03/02 04:53:50;;;;;;;18.77;13.13;;;2.80;99.90;;;;;;2097523;28;20028;-68
2022/03/02 04:55:05;;;;;;;15.32;11.88;;;2.80;99.90;;;;;;2094543;28;20028;-68
2022/03/02 04:56:06;;;;;;;17.05;11.98;;;2.80;99.90;;;;;;2095464;28;20029;-68
2022/03/02 04:57:08;;;;;;;16.00;11.60;;;2.80;99.90;;;;;;2099995;28;20056;-68
2022/03/02 04:58:08;;;;;;;14.48;11.68;;;2.80;99.90;;;;;;2092020;28;20028;-68
2022/03/02 04:59:09;;;;;;;15.38;11.80;;;2.80;99.90;;;;;;2095388;28;20472;-68
2022/03/02 05:00:21;;;;;;;13.48;11.40;;;2.80;99.90;;;;;;2094707;28;20017;-68
2022/03/02 05:01:22;;;;;;;16.13;11.38;;;2.70;99.90;;;;;;2098179;28;20111;-68
2022/03/02 05:02:22;;;;;;;15.35;12.43;;;2.70;99.90;;;;;;2096298;28;20032;-69
2022/03/02 05:03:23;;;;;;;14.27;11.13;;;2.70;99.90;;;;;;2092610;28;20066;-68
2022/03/02 05:04:23;;;;;;;13.90;10.80;;;2.70;99.90;;;;;;2095232;28;20366;-68
2022/03/02 05:05:25;;;;;;;14.45;10.80;;;2.70;99.90;;;;;;2093205;28;20016;-68
2022/03/02 05:06:26;;;;;;;16.95;11.93;;;2.70;99.90;;;;;;2090568;28;20039;-68
2022/03/02 05:07:26;;;;;;;17.10;12.35;;;2.70;99.90;;;;;;2093299;28;20036;-69
2022/03/02 05:08:27;;;;;;;17.02;11.45;;;2.70;99.90;;;;;;2090181;28;20025;-68
2022/03/02 05:09:27;;;;;;;18.13;12.63;;;2.70;99.90;;;;;;2095191;28;20042;-68
2022/03/02 05:10:29;;;;;;;15.75;11.85;;;2.70;99.90;;;;;;2095198;28;20028;-68
2022/03/02 05:11:29;;;;;;;15.38;12.35;;;2.70;99.90;;;;;;2091061;28;20032;-68
2022/03/02 05:12:30;;;;;;;15.02;11.55;;;2.70;99.90;;;;;;2096193;28;20031;-69
2022/03/02 05:13:30;;;;;;;15.65;11.52;;;2.70;99.90;;;;;;2092385;28;20473;-68